Time;durP1;ratioP1;P1;durP2;ratioP2;P2;SDS_P1;SDS_P2;PMS_P1;PMS_P2;Temp;Humidity;BMP_temperature;BMP_pressure;BME280_temperature;BME280_humidity;BME280_pressure;Samples;Min_cycle;Max_cycle;Signal;HPM_P1;HPM_P2
2022/03/15 00:00:34;;;;;;;35.10;20.07;;;;;;;3.21;57.77;101513.53;5070598;28;20206;-60
2022/03/15 00:03:01;;;;;;;32.90;21.23;;;;;;;3.14;58.56;101508.75;5070429;28;20245;-60
2022/03/15 00:05:28;;;;;;;40.80;21.87;;;;;;;3.15;58.67;101505.44;5070905;28;20200;-60
2022/03/15 00:07:55;;;;;;;30.40;20.50;;;;;;;3.17;58.77;101509.88;5070454;28;20528;-60
2022/03/15 00:10:23;;;;;;;34.03;20.87;;;;;;;3.13;58.79;101510.38;5070300;28;20279;-59
2022/03/15 00:12:52;;;;;;;31.20;20.33;;;;;;;3.12;59.39;101507.75;5070457;28;20191;-60
2022/03/15 00:15:20;;;;;;;33.37;21.00;;;;;;;3.14;59.03;101506.19;5070500;28;20188;-60
2022/03/15 00:17:47;;;;;;;30.77;20.57;;;;;;;3.07;59.40;101512.47;5070411;28;20199;-60
2022/03/15 00:20:18;;;;;;;31.23;23.50;;;;;;;3.02;60.13;101510.34;5070599;28;20195;-60
2022/03/15 00:22:46;;;;;;;34.80;23.40;;;;;;;2.93;60.78;101503.78;5070310;28;20784;-60
2022/03/15 00:25:16;;;;;;;37.20;23.70;;;;;;;2.89;61.16;101501.75;5070669;28;20250;-59
2022/03/15 00:27:44;;;;;;;36.10;25.20;;;;;;;2.76;62.13;101488.88;5070450;28;20305;-59
2022/03/15 00:30:14;;;;;;;37.43;24.57;;;;;;;2.74;62.84;101492.06;5070552;28;20600;-58
2022/03/15 00:32:41;;;;;;;36.90;25.87;;;;;;;2.73;63.04;101501.31;5070638;28;20192;-59
2022/03/15 00:35:10;;;;;;;41.80;29.90;;;;;;;2.73;63.45;101503.84;5070152;28;20434;-59
2022/03/15 00:37:37;;;;;;;41.37;28.37;;;;;;;2.77;63.58;101497.38;5070276;28;20191;-59
2022/03/15 00:40:05;;;;;;;39.33;26.17;;;;;;;2.80;63.82;101501.03;5070313;28;20253;-60
2022/03/15 00:42:32;;;;;;;35.87;26.60;;;;;;;2.84;63.36;101503.06;5070095;28;20222;-59
2022/03/15 00:45:02;;;;;;;42.23;27.17;;;;;;;2.73;64.21;101500.44;5069961;28;20213;-59
2022/03/15 00:47:30;;;;;;;41.80;26.50;;;;;;;2.57;64.41;101483.09;5069932;28;20195;-60
2022/03/15 00:49:57;;;;;;;37.70;24.90;;;;;;;2.61;64.73;101507.94;5069955;28;20194;-60
2022/03/15 00:52:25;;;;;;;38.03;24.23;;;;;;;2.64;65.16;101490.44;5070259;28;20187;-59
2022/03/15 00:54:52;;;;;;;41.13;24.33;;;;;;;2.70;64.72;101488.38;5070070;28;20188;-60
2022/03/15 00:57:19;;;;;;;34.53;23.73;;;;;;;2.69;64.68;101491.66;5069957;28;20194;-59
2022/03/15 00:59:46;;;;;;;32.20;23.33;;;;;;;2.75;64.68;101496.34;5073169;28;20227;-59
2022/03/15 01:02:13;;;;;;;31.43;22.80;;;;;;;2.68;64.68;101497.53;5073942;28;20219;-60
2022/03/15 01:04:41;;;;;;;34.67;23.30;;;;;;;2.54;64.87;101494.66;5074177;28;20624;-60
2022/03/15 01:07:08;;;;;;;30.83;22.73;;;;;;;2.49;65.58;101489.22;5073939;28;20195;-60
2022/03/15 01:09:35;;;;;;;36.23;23.20;;;;;;;2.38;65.69;101484.94;5073958;28;20299;-59
2022/03/15 01:12:02;;;;;;;33.10;22.93;;;;;;;2.33;66.36;101483.69;5073810;28;20287;-60
2022/03/15 01:14:29;;;;;;;35.37;24.13;;;;;;;2.27;66.70;101485.72;5073719;28;20187;-60
2022/03/15 01:16:57;;;;;;;35.87;24.20;;;;;;;2.23;66.62;101482.06;5073633;28;20195;-59
2022/03/15 01:19:24;;;;;;;37.37;24.70;;;;;;;2.17;67.34;101480.69;5073810;28;20551;-59
2022/03/15 01:21:54;;;;;;;37.42;29.20;;;;;;;2.16;67.03;101482.34;5072497;28;20524;-59
2022/03/15 01:24:21;;;;;;;37.07;26.10;;;;;;;2.12;67.03;101477.75;5073424;28;20188;-60
2022/03/15 01:26:51;;;;;;;36.93;26.80;;;;;;;2.17;67.19;101479.00;5073501;28;20202;-60
2022/03/15 01:29:19;;;;;;;38.63;26.43;;;;;;;2.14;66.53;101467.75;5073579;28;20195;-60
2022/03/15 01:31:46;;;;;;;39.10;27.80;;;;;;;2.19;67.29;101469.00;5073442;28;20191;-60
2022/03/15 01:34:13;;;;;;;38.83;27.17;;;;;;;2.18;66.96;101460.53;5073243;28;20201;-59
2022/03/15 01:36:40;;;;;;;37.83;27.57;;;;;;;2.19;67.04;101456.34;5073402;28;20637;-59
2022/03/15 01:39:09;;;;;;;37.73;26.20;;;;;;;2.17;67.19;101466.34;5078667;28;20191;-60
2022/03/15 01:41:39;;;;;;;37.17;27.43;;;;;;;2.10;67.11;101453.94;5081012;28;20231;-59
2022/03/15 01:44:15;;;;;;;36.90;25.50;;;;;;;2.10;66.99;101458.13;5081672;28;20535;-60
2022/03/15 01:46:42;;;;;;;40.20;27.30;;;;;;;2.05;67.63;101457.75;5082122;28;20187;-59
2022/03/15 01:49:09;;;;;;;44.13;33.58;;;;;;;2.12;67.86;101461.66;5080648;28;20441;-60
2022/03/15 01:51:40;;;;;;;39.97;30.37;;;;;;;2.02;67.59;101438.88;5082997;28;20195;-57
2022/03/15 01:54:09;;;;;;;38.17;28.13;;;;;;;2.09;67.41;101452.16;5075427;28;20227;-57
2022/03/15 01:56:42;;;;;;;43.95;32.25;;;;;;;2.04;68.04;101450.00;5076705;28;20863;-57
2022/03/15 01:59:10;;;;;;;41.47;26.30;;;;;;;2.07;67.73;101447.72;5072635;28;20262;-57
2022/03/15 02:01:37;;;;;;;35.10;25.67;;;;;;;2.00;67.19;101451.44;5072660;28;20203;-57
2022/03/15 02:04:05;;;;;;;38.77;27.53;;;;;;;2.05;67.47;101449.25;5073030;28;20269;-56
2022/03/15 02:06:32;;;;;;;40.43;27.20;;;;;;;2.07;67.23;101452.78;5072732;28;20196;-57
2022/03/15 02:08:59;;;;;;;37.50;27.23;;;;;;;2.01;67.62;101455.72;5072477;28;20187;-57
2022/03/15 02:11:28;;;;;;;39.17;27.07;;;;;;;2.01;67.95;101463.31;5072748;28;20274;-57
2022/03/15 02:13:55;;;;;;;35.23;25.50;;;;;;;1.95;67.95;101464.50;5072548;28;20232;-58
2022/03/15 02:16:22;;;;;;;36.13;26.07;;;;;;;1.88;68.38;101465.63;5072626;28;20192;-57
2022/03/15 02:18:49;;;;;;;33.13;24.23;;;;;;;1.81;68.23;101470.97;5072785;28;20192;-57
2022/03/15 02:21:17;;;;;;;36.37;24.73;;;;;;;1.83;68.00;101476.16;5072540;28;20696;-58
2022/03/15 02:23:44;;;;;;;35.30;25.27;;;;;;;1.82;68.15;101474.38;5072362;28;20241;-57
2022/03/15 02:26:13;;;;;;;38.57;25.63;;;;;;;1.81;68.16;101477.69;5072586;28;20698;-58
2022/03/15 02:28:40;;;;;;;37.00;24.90;;;;;;;1.77;69.12;101486.69;5072565;28;20763;-58
2022/03/15 02:31:07;;;;;;;36.87;25.23;;;;;;;1.74;68.51;101484.78;5072438;28;20187;-58
2022/03/15 02:33:34;;;;;;;40.57;25.57;;;;;;;1.64;69.21;101478.81;5072611;28;20184;-58
2022/03/15 02:36:01;;;;;;;35.20;25.50;;;;;;;1.63;69.45;101494.78;5072571;28;20294;-57
2022/03/15 02:38:29;;;;;;;37.37;26.57;;;;;;;1.60;69.33;101497.94;5072490;28;20192;-57
2022/03/15 02:40:56;;;;;;;36.73;25.50;;;;;;;1.62;69.32;101501.47;5072301;28;20202;-57
2022/03/15 02:43:24;;;;;;;32.83;24.80;;;;;;;1.58;69.87;101504.53;5072114;28;20223;-57
2022/03/15 02:45:51;;;;;;;37.13;25.73;;;;;;;1.46;70.13;101503.50;5072398;28;20196;-57
2022/03/15 02:48:18;;;;;;;35.13;24.97;;;;;;;1.48;69.68;101499.47;5072336;28;20191;-57
2022/03/15 02:50:45;;;;;;;33.60;24.17;;;;;;;1.42;70.38;101500.59;5072224;28;20213;-57
2022/03/15 02:53:12;;;;;;;33.60;23.40;;;;;;;1.37;70.11;101502.75;5071884;28;20191;-57
2022/03/15 02:55:40;;;;;;;32.20;24.63;;;;;;;1.36;70.23;101500.97;5072064;28;20191;-57
2022/03/15 02:58:07;;;;;;;34.80;24.30;;;;;;;1.40;70.34;101497.91;5071649;28;20638;-57
2022/03/15 03:00:34;;;;;;;35.20;27.85;;;;;;;1.40;70.46;101494.50;5071396;28;20465;-57
2022/03/15 03:03:02;;;;;;;39.00;24.47;;;;;;;1.41;70.24;101494.63;5071689;28;20223;-57
2022/03/15 03:05:29;;;;;;;33.53;25.43;;;;;;;1.41;70.64;101491.22;5071744;28;20670;-57
2022/03/15 03:07:56;;;;;;;38.23;26.37;;;;;;;1.39;70.01;101480.97;5071589;28;20282;-56
2022/03/15 03:10:23;;;;;;;42.13;31.55;;;;;;;1.32;70.83;101480.31;5070395;28;20449;-57
2022/03/15 03:12:51;;;;;;;39.27;26.47;;;;;;;1.29;70.59;101475.91;5071540;28;20187;-58
2022/03/15 03:15:22;;;;;;;34.70;25.27;;;;;;;1.32;69.87;101482.84;5071882;28;20191;-57
2022/03/15 03:17:50;;;;;;;41.97;24.10;;;;;;;1.27;70.82;101476.50;5071543;28;20199;-57
2022/03/15 03:20:19;;;;;;;36.70;22.47;;;;;;;1.24;70.74;101469.53;5071654;28;20199;-57
2022/03/15 03:22:46;;;;;;;31.03;23.43;;;;;;;1.22;70.45;101462.56;5070786;28;20251;-57
2022/03/15 03:25:13;;;;;;;31.57;23.00;;;;;;;1.17;71.05;101454.59;5071348;28;20628;-57
2022/03/15 03:27:40;;;;;;;32.57;22.60;;;;;;;1.20;70.26;101462.44;5071343;28;20196;-57
2022/03/15 03:30:10;;;;;;;34.60;21.97;;;;;;;1.16;69.95;101455.34;5071592;28;20771;-57
2022/03/15 03:32:37;;;;;;;30.67;22.03;;;;;;;1.18;70.62;101469.91;5071445;28;20188;-57
2022/03/15 03:35:05;;;;;;;33.83;23.63;;;;;;;1.26;70.50;101455.38;5071227;28;20673;-57
2022/03/15 03:37:32;;;;;;;34.72;25.77;;;;;;;1.32;70.30;101448.25;5070537;28;20438;-57
2022/03/15 03:40:00;;;;;;;38.27;24.93;;;;;;;1.33;69.84;101450.06;5070966;28;20199;-56
2022/03/15 03:42:27;;;;;;;36.83;24.80;;;;;;;1.30;70.48;101449.78;5071037;28;20211;-57
2022/03/15 03:44:54;;;;;;;33.57;24.77;;;;;;;1.27;71.10;101446.09;5070988;28;20661;-57
2022/03/15 03:47:22;;;;;;;34.60;24.47;;;;;;;1.27;71.03;101453.72;5070817;28;20195;-58
2022/03/15 03:49:49;;;;;;;35.10;25.23;;;;;;;1.29;70.99;101442.97;5070995;28;20198;-57
2022/03/15 03:52:17;;;;;;;42.63;25.40;;;;;;;1.28;70.26;101441.19;5070778;28;20191;-57
2022/03/15 03:54:44;;;;;;;37.73;24.57;;;;;;;1.30;70.08;101443.84;5070754;28;20561;-57
2022/03/15 03:57:10;;;;;;;41.67;24.83;;;;;;;1.29;70.51;101442.97;5070530;28;20282;-57
2022/03/15 03:59:37;;;;;;;39.13;24.20;;;;;;;1.28;69.90;101431.06;5070401;28;20705;-57
2022/03/15 04:02:05;;;;;;;32.10;23.07;;;;;;;1.12;70.09;101407.75;5070428;28;20194;-57
2022/03/15 04:04:33;;;;;;;41.50;25.20;;;;;;;1.35;69.68;101435.88;5070428;28;20183;-58
2022/03/15 04:07:02;;;;;;;32.47;24.43;;;;;;;1.25;70.69;101434.97;5070842;28;20282;-58
2022/03/15 04:09:29;;;;;;;32.17;22.87;;;;;;;1.29;71.07;101437.91;5070472;28;20191;-57
2022/03/15 04:11:56;;;;;;;36.50;23.53;;;;;;;1.29;70.17;101435.38;5070609;28;20276;-57
2022/03/15 04:14:23;;;;;;;35.00;27.40;;;;;;;1.32;70.59;101438.13;5069550;28;20806;-57
2022/03/15 04:16:50;;;;;;;33.83;23.83;;;;;;;1.37;70.63;101430.94;5070316;28;20202;-57
2022/03/15 04:19:16;;;;;;;36.97;25.70;;;;;;;1.36;70.11;101427.53;5069725;28;20195;-57
2022/03/15 04:21:45;;;;;;;36.63;26.70;;;;;;;1.30;69.76;101432.06;5070083;28;20863;-57
2022/03/15 04:24:14;;;;;;;35.03;25.57;;;;;;;1.35;70.53;101424.84;5070383;28;20298;-56
2022/03/15 04:26:42;;;;;;;34.17;25.43;;;;;;;1.27;70.72;101408.13;5068316;28;20711;-57
2022/03/15 04:29:09;;;;;;;32.30;23.57;;;;;;;1.24;70.82;101434.09;5070301;28;20225;-57
2022/03/15 04:31:36;;;;;;;35.70;24.20;;;;;;;1.26;70.16;101426.63;5070090;28;20202;-57
2022/03/15 04:34:03;;;;;;;34.97;24.77;;;;;;;1.31;70.63;101441.44;5069198;28;20739;-57
2022/03/15 04:36:30;;;;;;;34.03;23.77;;;;;;;1.26;70.12;101442.72;5070136;28;20282;-58
2022/03/15 04:38:58;;;;;;;36.23;24.43;;;;;;;1.25;70.25;101438.41;5070129;28;20248;-57
2022/03/15 04:41:26;;;;;;;34.33;25.43;;;;;;;1.19;71.42;101430.28;5070428;28;20195;-57
2022/03/15 04:43:53;;;;;;;39.07;26.03;;;;;;;1.11;71.10;101436.34;5070340;28;20272;-58
2022/03/15 04:46:20;;;;;;;36.67;24.83;;;;;;;1.13;71.25;101434.81;5070101;28;20203;-58
2022/03/15 04:48:47;;;;;;;37.50;24.77;;;;;;;1.20;70.26;101437.13;5070824;28;20199;-57
2022/03/15 04:51:14;;;;;;;34.50;25.30;;;;;;;1.24;70.13;101428.16;5070762;28;20199;-58
2022/03/15 04:53:41;;;;;;;37.47;26.77;;;;;;;1.18;69.84;101438.66;5070788;28;20958;-57
2022/03/15 04:56:09;;;;;;;37.03;26.33;;;;;;;1.16;69.92;101430.03;5070379;28;20307;-58
2022/03/15 04:58:36;;;;;;;41.03;28.27;;;;;;;1.18;70.19;101426.84;5069353;28;20457;-57
2022/03/15 05:01:03;;;;;;;36.67;23.57;;;;;;;1.25;70.01;101434.97;5069774;28;20438;-58
2022/03/15 05:03:31;;;;;;;33.70;22.87;;;;;;;1.20;69.40;101432.06;5069682;28;20216;-57
2022/03/15 05:05:58;;;;;;;36.37;22.93;;;;;;;1.25;69.55;101438.41;5069669;28;20238;-58
2022/03/15 05:08:25;;;;;;;38.83;23.00;;;;;;;1.29;69.56;101442.97;5069612;28;20280;-58
2022/03/15 05:11:07;;;;;;;33.27;22.87;;;;;;;1.30;68.83;101443.84;5069821;28;20198;-58
2022/03/15 05:13:39;;;;;;;32.30;22.80;;;;;;;1.40;69.40;101441.34;5069638;28;20283;-57
2022/03/15 05:16:07;;;;;;;34.13;22.70;;;;;;;1.42;69.15;101438.16;5069798;28;20260;-58
2022/03/15 05:18:34;;;;;;;31.70;21.77;;;;;;;1.46;67.92;101447.78;5069927;28;20200;-58
2022/03/15 05:21:01;;;;;;;32.03;21.83;;;;;;;1.49;68.30;101453.09;5069579;28;20693;-57
2022/03/15 05:23:29;;;;;;;31.97;19.73;;;;;;;1.42;68.21;101453.38;5069234;28;20222;-57
2022/03/15 05:25:55;;;;;;;29.87;18.80;;;;;;;1.49;67.48;101467.41;5069297;28;20278;-58
2022/03/15 05:28:22;;;;;;;33.17;19.37;;;;;;;1.41;68.01;101460.81;5069521;28;20202;-58
2022/03/15 05:30:51;;;;;;;26.83;19.60;;;;;;;1.51;67.39;101468.44;5069173;28;20538;-57
2022/03/15 05:33:18;;;;;;;26.63;22.23;;;;;;;1.55;68.48;101480.59;5066754;28;20525;-57
2022/03/15 05:35:45;;;;;;;29.07;22.27;;;;;;;1.59;66.73;101490.22;5058565;28;20203;-59
2022/03/15 05:38:12;;;;;;;31.67;20.67;;;;;;;1.32;67.32;101443.19;5069275;28;20598;-59
2022/03/15 05:40:39;;;;;;;29.27;21.13;;;;;;;1.61;66.73;101476.94;5069378;28;20566;-58
2022/03/15 05:43:06;;;;;;;28.10;20.30;;;;;;;1.71;66.63;101486.16;5069277;28;20200;-58
2022/03/15 05:45:34;;;;;;;25.80;18.63;;;;;;;1.48;66.16;101435.25;5071952;28;20223;-58
2022/03/15 05:48:03;;;;;;;26.60;19.23;;;;;;;1.77;66.79;101477.44;5072910;28;20191;-57
2022/03/15 05:50:30;;;;;;;26.70;18.57;;;;;;;1.81;66.47;101485.28;5073101;28;20241;-58
2022/03/15 05:52:57;;;;;;;23.50;18.20;;;;;;;1.84;66.49;101481.34;5072583;28;20180;-58
2022/03/15 05:55:24;;;;;;;28.23;19.43;;;;;;;1.62;66.02;101425.47;5073114;28;20298;-58
2022/03/15 05:57:51;;;;;;;26.10;18.47;;;;;;;2.04;65.20;101480.44;5072884;28;20629;-58
2022/03/15 06:00:20;;;;;;;27.10;18.23;;;;;;;2.12;64.89;101482.84;5072948;28;20219;-58
2022/03/15 06:02:47;;;;;;;28.43;19.53;;;;;;;2.21;65.14;101482.69;5072938;28;20191;-58
2022/03/15 06:05:15;;;;;;;30.75;21.20;;;;;;;2.23;64.87;101484.59;5071030;28;20097;-59
2022/03/15 06:07:46;;;;;;;31.57;20.93;;;;;;;2.34;64.50;101481.28;5076608;28;20206;-58
2022/03/15 06:10:13;;;;;;;32.10;19.47;;;;;;;2.42;64.22;101484.41;5072492;28;20198;-58
2022/03/15 06:12:40;;;;;;;27.07;18.53;;;;;;;2.47;63.70;101482.25;5063052;28;20200;-58
2022/03/15 06:15:08;;;;;;;24.90;17.60;;;;;;;2.54;63.08;101484.50;5079127;28;20269;-58
2022/03/15 06:17:44;;;;;;;23.57;18.23;;;;;;;2.62;62.85;101488.53;5082868;28;20186;-58
2022/03/15 06:20:14;;;;;;;24.37;18.13;;;;;;;2.69;62.90;101483.19;5083012;28;20190;-58
2022/03/15 06:22:42;;;;;;;26.67;17.67;;;;;;;2.79;62.11;101486.56;5071773;28;20210;-59
2022/03/15 06:25:10;;;;;;;25.80;18.47;;;;;;;2.78;61.37;101482.25;5072261;28;20219;-59
2022/03/15 06:27:38;;;;;;;25.27;17.67;;;;;;;2.76;61.27;101467.69;5072360;28;20192;-58
2022/03/15 06:30:06;;;;;;;23.97;17.63;;;;;;;2.79;61.38;101467.91;5072123;28;20187;-58
2022/03/15 06:32:34;;;;;;;28.00;20.90;;;;;;;2.89;60.83;101466.22;5071016;28;20441;-58
2022/03/15 06:35:07;;;;;;;23.43;18.30;;;;;;;3.05;60.53;101467.41;5071904;28;20427;-58
2022/03/15 06:37:39;;;;;;;25.53;19.07;;;;;;;2.87;60.33;101427.13;5071839;28;20222;-58
2022/03/15 06:40:09;;;;;;;26.40;20.35;;;;;;;3.17;60.03;101471.78;5071142;28;20932;-58
2022/03/15 06:42:36;;;;;;;27.77;17.73;;;;;;;2.98;60.08;101433.94;5071684;28;20195;-58
2022/03/15 06:45:03;;;;;;;29.00;18.10;;;;;;;3.29;59.98;101469.28;5071564;28;20215;-58
2022/03/15 06:47:30;;;;;;;23.60;17.00;;;;;;;3.30;59.29;101476.13;5071733;28;20194;-58
2022/03/15 06:49:57;;;;;;;21.60;15.83;;;;;;;3.34;58.65;101475.59;5071493;28;20200;-59
2022/03/15 06:52:24;;;;;;;21.17;16.43;;;;;;;3.35;58.68;101483.31;5071588;28;20195;-59
2022/03/15 06:54:51;;;;;;;23.00;16.60;;;;;;;3.35;58.17;101490.09;5071699;28;20188;-59
2022/03/15 06:57:19;;;;;;;25.10;16.57;;;;;;;3.40;58.64;101489.69;5070103;28;20282;-58
2022/03/15 06:59:46;;;;;;;20.67;16.37;;;;;;;3.41;58.45;101485.44;5071107;28;20231;-58
2022/03/15 07:02:13;;;;;;;27.27;16.07;;;;;;;3.37;58.86;101481.81;5071338;28;20195;-59
2022/03/15 07:04:40;;;;;;;22.80;16.67;;;;;;;3.44;59.27;101472.97;5071443;28;20693;-59
2022/03/15 07:07:07;;;;;;;29.00;19.83;;;;;;;3.57;59.02;101468.09;5070912;28;20434;-59
2022/03/15 07:09:34;;;;;;;24.70;18.03;;;;;;;3.70;58.84;101469.88;5071121;28;20319;-59
2022/03/15 07:12:01;;;;;;;23.83;17.73;;;;;;;3.81;58.00;101471.56;5071115;28;20231;-58
2022/03/15 07:14:30;;;;;;;24.57;19.10;;;;;;;3.92;58.03;101471.59;5071282;28;20638;-57
2022/03/15 07:16:56;;;;;;;32.78;21.67;;;;;;;4.07;57.65;101474.34;5070448;28;20444;-59
2022/03/15 07:19:23;;;;;;;25.57;18.50;;;;;;;4.21;57.02;101473.72;5071027;28;20207;-58
2022/03/15 07:21:50;;;;;;;31.90;17.83;;;;;;;4.28;57.31;101475.94;5071050;28;20201;-58
2022/03/15 07:24:17;;;;;;;28.47;17.67;;;;;;;4.40;56.89;101479.34;5070568;28;20215;-58
2022/03/15 07:26:44;;;;;;;25.27;17.87;;;;;;;4.42;56.99;101454.91;5070576;28;20207;-58
2022/03/15 07:29:11;;;;;;;26.70;17.17;;;;;;;4.67;55.89;101470.25;5070817;28;20198;-58
2022/03/15 07:31:39;;;;;;;23.63;16.90;;;;;;;4.74;55.93;101468.28;5071028;28;20213;-58
2022/03/15 07:34:06;;;;;;;23.37;17.07;;;;;;;4.85;55.61;101479.22;5070982;28;20187;-58
2022/03/15 07:36:35;;;;;;;23.63;16.57;;;;;;;4.88;55.45;101481.09;5070586;28;20216;-58
2022/03/15 07:39:02;;;;;;;22.83;15.70;;;;;;;5.00;54.82;101470.09;5070534;28;20285;-58
2022/03/15 07:41:32;;;;;;;18.30;13.20;;;;;;;5.06;53.28;101472.16;5070569;28;20180;-58
2022/03/15 07:44:00;;;;;;;20.60;16.25;;;;;;;5.16;52.94;101475.50;5069724;28;20954;-59
2022/03/15 07:46:27;;;;;;;21.20;15.10;;;;;;;5.26;52.94;101465.13;5070623;28;20195;-58
2022/03/15 07:48:55;;;;;;;18.20;14.13;;;;;;;5.42;52.47;101471.28;5070413;28;20196;-59
2022/03/15 07:51:22;;;;;;;19.43;14.03;;;;;;;5.44;51.77;101470.59;5070562;28;20286;-58
2022/03/15 07:53:49;;;;;;;17.17;13.30;;;;;;;5.58;51.31;101468.97;5070300;28;20277;-58
2022/03/15 07:56:16;;;;;;;17.23;12.67;;;;;;;5.65;50.77;101466.06;5070672;28;20204;-59
2022/03/15 07:58:43;;;;;;;14.67;12.40;;;;;;;5.84;51.68;101463.97;5070228;28;20662;-59
2022/03/15 08:01:10;;;;;;;17.37;12.93;;;;;;;5.91;49.31;101477.25;5070230;28;20282;-58
2022/03/15 08:03:37;;;;;;;18.60;13.10;;;;;;;6.11;50.66;101470.03;5070316;28;20232;-58
2022/03/15 08:06:05;;;;;;;19.27;14.33;;;;;;;6.40;53.34;101460.91;5058014;28;20207;-58
2022/03/15 08:08:32;;;;;;;21.63;14.17;;;;;;;6.44;50.11;101462.88;5068931;28;20199;-59
2022/03/15 08:11:00;;;;;;;19.90;14.90;;;;;;;6.50;49.13;101459.84;5070439;28;20192;-57
2022/03/15 08:13:27;;;;;;;19.60;14.97;;;;;;;6.45;47.47;101453.56;5070023;28;20193;-58
2022/03/15 08:15:54;;;;;;;20.83;16.00;;;;;;;6.36;48.26;101463.19;5069860;28;20204;-58
2022/03/15 08:18:20;;;;;;;21.83;15.13;;;;;;;6.47;48.36;101447.75;5073942;28;20191;-61
2022/03/15 08:20:48;;;;;;;19.13;14.60;;;;;;;6.64;48.00;101455.59;5078617;28;20202;-58
2022/03/15 08:23:17;;;;;;;20.57;14.47;;;;;;;6.76;46.45;101452.13;5060716;28;20295;-58
2022/03/15 08:25:44;;;;;;;21.67;14.83;;;;;;;6.76;46.10;101454.69;5070158;28;20703;-58
2022/03/15 08:28:11;;;;;;;20.03;15.07;;;;;;;6.76;47.22;101452.13;5070349;28;20216;-58
2022/03/15 08:30:38;;;;;;;22.50;16.43;;;;;;;6.71;47.36;101450.06;5074999;28;20537;-58
2022/03/15 08:33:05;;;;;;;18.43;14.43;;;;;;;6.78;46.79;101442.03;5070070;28;20540;-58
2022/03/15 08:35:32;;;;;;;21.53;15.80;;;;;;;6.89;46.82;101443.56;5076010;28;20196;-57
2022/03/15 08:37:58;;;;;;;21.50;16.43;;;;;;;6.75;47.18;101439.28;5080631;28;20699;-58
2022/03/15 08:40:27;;;;;;;24.00;16.73;;;;;;;6.78;47.52;101444.59;5079371;28;20270;-58
2022/03/15 08:42:54;;;;;;;19.83;16.10;;;;;;;6.95;46.91;101434.59;5071169;28;20204;-58
2022/03/15 08:45:20;;;;;;;23.13;16.37;;;;;;;6.99;47.08;101441.69;5058990;28;20225;-58
2022/03/15 08:47:47;;;;;;;22.63;16.97;;;;;;;7.02;46.36;101444.44;5075700;28;20195;-58
2022/03/15 08:50:14;;;;;;;23.57;16.63;;;;;;;6.98;46.47;101436.47;5075718;28;20208;-59
2022/03/15 08:52:41;;;;;;;25.30;15.73;;;;;;;6.99;45.61;101439.13;5075717;28;20222;-58
2022/03/15 08:55:09;;;;;;;19.03;14.57;;;;;;;7.06;45.33;101431.03;5078980;28;20569;-59
2022/03/15 08:57:38;;;;;;;24.35;17.58;;;;;;;7.09;45.12;101433.78;5071721;28;20481;-58
2022/03/15 09:00:10;;;;;;;21.37;15.97;;;;;;;7.28;46.15;101432.34;5078351;28;20706;-58
2022/03/15 09:02:37;;;;;;;20.30;15.73;;;;;;;7.57;44.97;101419.59;5076342;28;20271;-58
2022/03/15 09:05:04;;;;;;;20.03;14.07;;;;;;;7.76;42.97;101412.22;5076221;28;20206;-58
2022/03/15 09:07:31;;;;;;;22.20;17.35;;;;;;;7.91;43.28;101410.50;5068648;28;20434;-58
2022/03/15 09:09:59;;;;;;;20.90;17.37;;;;;;;8.12;43.12;101398.97;5069444;28;20333;-58
2022/03/15 09:12:26;;;;;;;21.27;15.37;;;;;;;8.20;42.32;101373.78;5069395;28;20197;-58
2022/03/15 09:14:54;;;;;;;20.40;14.83;;;;;;;8.53;40.58;101411.53;5069275;28;20281;-58
2022/03/15 09:17:21;;;;;;;20.47;14.60;;;;;;;8.53;40.63;101405.50;5069045;28;20202;-58
2022/03/15 09:19:50;;;;;;;20.00;13.00;;;;;;;8.67;40.91;101396.91;5069305;28;20214;-58
2022/03/15 09:22:17;;;;;;;19.27;13.67;;;;;;;8.73;39.97;101395.56;5078839;28;20203;-57
2022/03/15 09:24:44;;;;;;;15.53;12.27;;;;;;;8.55;40.23;101391.09;5073099;28;20223;-59
2022/03/15 09:27:12;;;;;;;16.02;13.63;;;;;;;8.32;40.71;101397.53;5072618;28;20515;-57
2022/03/15 09:29:40;;;;;;;17.03;13.27;;;;;;;8.41;40.59;101386.91;5072954;28;20265;-58
2022/03/15 09:32:10;;;;;;;17.57;13.17;;;;;;;8.51;40.17;101378.94;5073052;28;20278;-57
2022/03/15 09:34:37;;;;;;;20.73;13.20;;;;;;;8.71;40.57;101379.19;5073184;28;20188;-58
2022/03/15 09:37:05;;;;;;;16.52;14.70;;;;;;;8.92;40.30;101370.91;5072586;28;20487;-59
2022/03/15 09:39:32;;;;;;;18.97;14.00;;;;;;;9.16;40.37;101362.81;5072812;28;20286;-58
2022/03/15 09:42:00;;;;;;;18.80;13.67;;;;;;;9.32;39.68;101361.88;5072681;28;20198;-58
2022/03/15 09:44:30;;;;;;;18.13;13.77;;;;;;;9.51;39.88;101356.88;5072435;28;20219;-59
2022/03/15 09:47:03;;;;;;;23.30;14.43;;;;;;;9.68;39.23;101353.47;5072666;28;20199;-58
2022/03/15 09:49:32;;;;;;;17.90;13.30;;;;;;;9.57;37.74;101346.94;5073072;28;20218;-58
2022/03/15 09:52:00;;;;;;;16.90;12.90;;;;;;;9.60;38.20;101338.50;5072627;28;20539;-58
2022/03/15 09:54:29;;;;;;;18.63;14.17;;;;;;;9.84;38.17;101330.31;5072415;28;20188;-58
2022/03/15 09:56:57;;;;;;;16.13;12.70;;;;;;;9.91;37.22;101322.13;5072484;28;20650;-58
2022/03/15 09:59:28;;;;;;;21.87;13.17;;;;;;;10.03;37.54;101311.53;5072350;28;20232;-58
2022/03/15 10:01:57;;;;;;;19.43;15.23;;;;;;;10.22;37.49;101308.19;5072223;28;20532;-60
2022/03/15 10:04:25;;;;;;;13.10;11.63;;;;;;;10.16;36.48;101311.34;5072253;28;20308;-60
2022/03/15 10:06:54;;;;;;;17.40;12.20;;;;;;;9.96;37.47;101309.47;5072157;28;20779;-60
2022/03/15 10:09:22;;;;;;;15.50;11.80;;;;;;;10.01;37.10;101298.63;5072097;28;20176;-58
2022/03/15 10:11:50;;;;;;;18.27;13.33;;;;;;;10.09;36.67;101299.88;5071899;28;20206;-58
2022/03/15 10:14:18;;;;;;;17.03;13.13;;;;;;;9.95;37.20;101292.31;5072243;28;20302;-58
2022/03/15 10:16:46;;;;;;;18.37;11.97;;;;;;;9.90;37.34;101291.22;5071879;28;20213;-59
2022/03/15 10:19:15;;;;;;;15.37;12.10;;;;;;;10.09;37.01;101281.88;5071956;28;20195;-59
2022/03/15 10:21:46;;;;;;;15.40;11.63;;;;;;;10.03;36.62;101290.97;5071624;28;20187;-59
2022/03/15 10:24:17;;;;;;;15.27;12.53;;;;;;;10.06;36.52;101281.75;5071969;28;20197;-58
2022/03/15 10:26:45;;;;;;;16.07;12.10;;;;;;;10.14;36.14;101265.81;5071881;28;20199;-59
2022/03/15 10:29:28;;;;;;;16.57;12.43;;;;;;;10.20;36.14;101268.69;5071693;28;20194;-58
2022/03/15 10:31:55;;;;;;;13.53;11.13;;;;;;;10.40;36.05;101265.34;5069215;28;20199;-58
2022/03/15 10:34:23;;;;;;;16.03;11.90;;;;;;;10.65;35.48;101260.47;5071665;28;20202;-58
2022/03/15 10:36:54;;;;;;;12.10;10.67;;;;;;;10.82;34.82;101249.25;5071911;28;20574;-58
2022/03/15 10:39:22;;;;;;;15.63;11.00;;;;;;;10.98;34.38;101251.66;5071913;28;20562;-58
2022/03/15 10:41:51;;;;;;;12.33;10.43;;;;;;;11.07;33.99;101248.59;5071623;28;20194;-58
2022/03/15 10:44:21;;;;;;;13.93;10.50;;;;;;;11.16;33.41;101248.97;5072938;28;20684;-59
2022/03/15 10:47:06;;;;;;;15.70;11.70;;;;;;;11.37;33.44;101243.84;5079833;28;20198;-58
2022/03/15 10:49:46;;;;;;;17.53;12.17;;;;;;;11.53;32.90;101231.66;5080839;28;20188;-58
2022/03/15 10:52:13;;;;;;;14.90;10.57;;;;;;;11.63;32.96;101225.16;5077524;28;20192;-59
2022/03/15 10:54:42;;;;;;;15.63;11.53;;;;;;;11.76;32.25;101220.59;5081722;28;20187;-59
2022/03/15 10:57:09;;;;;;;20.10;12.00;;;;;;;11.85;32.50;101214.91;5082023;28;20669;-59
2022/03/15 10:59:36;;;;;;;15.47;11.13;;;;;;;11.93;31.95;101213.50;5080429;28;20219;-59
2022/03/15 11:02:03;;;;;;;13.33;10.53;;;;;;;11.99;31.52;101205.13;5080692;28;20186;-59
2022/03/15 11:04:30;;;;;;;14.73;10.87;;;;;;;11.97;31.25;101207.66;5082048;28;20511;-59
2022/03/15 11:06:57;;;;;;;14.60;10.43;;;;;;;12.11;31.71;101201.34;5080184;28;20663;-59
2022/03/15 11:09:26;;;;;;;11.90;10.27;;;;;;;12.20;30.51;101191.34;5080201;28;20191;-58
2022/03/15 11:11:59;;;;;;;10.33;9.23;;;;;;;12.31;30.27;101184.00;5081853;28;20186;-59
2022/03/15 11:14:36;;;;;;;12.93;9.20;;;;;;;12.41;30.28;101178.38;5080069;28;20194;-58
2022/03/15 11:17:07;;;;;;;12.77;9.77;;;;;;;12.47;29.90;101168.25;5073917;28;20195;-57
2022/03/15 11:19:39;;;;;;;9.70;8.43;;;;;;;12.16;28.73;101161.16;5079916;28;20206;-58